Time;durP1;ratioP1;P1;durP2;ratioP2;P2;SDS_P1;SDS_P2;PMS_P1;PMS_P2;Temp;Humidity;BMP_temperature;BMP_pressure;BME280_temperature;BME280_humidity;BME280_pressure;Samples;Min_cycle;Max_cycle;Signal;HPM_P1;HPM_P2
2022/01/04 00:02:23;;;;;;;0.63;0.40;;;18.70;63.80;;;;;;5041264;28;20045;-51
2022/01/04 00:04:48;;;;;;;0.73;0.43;;;18.70;63.80;;;;;;5040685;28;20044;-54
2022/01/04 00:07:14;;;;;;;1.45;0.40;;;18.60;63.70;;;;;;5039560;28;20029;-56
2022/01/04 00:09:42;;;;;;;0.73;0.60;;;18.60;64.30;;;;;;5039233;28;20037;-56
2022/01/04 00:14:57;;;;;;;0.35;0.30;;;18.70;63.80;;;;;;4999864;28;20029;-53
2022/01/04 00:17:22;;;;;;;1.02;0.40;;;18.60;63.80;;;;;;5038919;28;20140;-56
2022/01/04 00:19:48;;;;;;;1.00;0.40;;;18.60;63.70;;;;;;5040318;28;20078;-56
2022/01/04 00:22:14;;;;;;;0.60;0.40;;;18.60;63.80;;;;;;5043865;28;20104;-54
2022/01/04 00:24:39;;;;;;;4.18;1.08;;;18.60;63.70;;;;;;5026611;28;20041;-54
2022/01/04 00:27:05;;;;;;;0.88;0.40;;;18.60;64.30;;;;;;5042514;28;20029;-56
2022/01/04 00:29:30;;;;;;;1.08;0.40;;;18.60;63.70;;;;;;5040448;28;20059;-54
2022/01/04 00:31:56;;;;;;;1.60;0.65;;;18.60;63.70;;;;;;5043657;28;20032;-53
2022/01/04 00:34:21;;;;;;;0.75;0.50;;;18.60;63.60;;;;;;5042195;28;20366;-56
2022/01/04 00:36:47;;;;;;;0.40;0.30;;;18.60;63.60;;;;;;5043411;28;20033;-57
2022/01/04 00:39:12;;;;;;;2.33;0.40;;;18.60;63.50;;;;;;5042824;28;20029;-53
2022/01/04 00:41:38;;;;;;;1.00;0.47;;;18.60;63.50;;;;;;5043544;28;20036;-52
2022/01/04 00:44:04;;;;;;;0.77;0.50;;;18.60;63.50;;;;;;5043032;28;20120;-53
2022/01/04 00:46:30;;;;;;;1.10;0.50;;;18.60;63.50;;;;;;5043748;28;20547;-58
2022/01/04 00:49:10;;;;;;;0.68;0.40;;;18.60;63.50;;;;;;5043223;28;20041;-55
2022/01/04 00:51:49;;;;;;;0.50;0.40;;;18.60;63.50;;;;;;5044365;28;20036;-56
2022/01/04 00:54:16;;;;;;;0.77;0.40;;;18.60;63.50;;;;;;5043677;28;20163;-54
2022/01/04 00:56:42;;;;;;;1.30;0.50;;;18.60;63.40;;;;;;5043642;28;20039;-56
2022/01/04 00:59:07;;;;;;;0.43;0.30;;;18.60;63.40;;;;;;5043338;28;20033;-55
2022/01/04 01:01:33;;;;;;;0.60;0.30;;;18.60;63.40;;;;;;5043958;28;20049;-55
2022/01/04 01:03:59;;;;;;;1.02;0.45;;;18.60;63.40;;;;;;5038171;28;20045;-53
2022/01/04 01:06:24;;;;;;;0.35;0.30;;;18.60;63.40;;;;;;5025867;28;20403;-52
2022/01/04 01:08:50;;;;;;;1.02;0.35;;;18.60;63.30;;;;;;5042258;28;20029;-55
2022/01/04 01:11:15;;;;;;;0.43;0.38;;;18.60;63.30;;;;;;5043652;28;20021;-51
2022/01/04 01:13:41;;;;;;;0.77;0.50;;;18.60;63.30;;;;;;5043289;28;20033;-56
2022/01/04 01:16:06;;;;;;;0.82;0.35;;;18.60;63.20;;;;;;5042392;28;20119;-56
2022/01/04 01:18:32;;;;;;;0.88;0.38;;;18.60;63.20;;;;;;5041297;28;20029;-57
2022/01/04 01:20:57;;;;;;;0.50;0.30;;;18.60;63.20;;;;;;5041998;28;20100;-55
2022/01/04 01:23:23;;;;;;;0.50;0.28;;;18.60;63.30;;;;;;5043531;28;20025;-52
2022/01/04 01:25:49;;;;;;;0.40;0.35;;;18.60;63.20;;;;;;5042607;28;20025;-52
2022/01/04 01:28:14;;;;;;;0.50;0.40;;;18.60;63.20;;;;;;5041368;28;20033;-57
2022/01/04 01:30:42;;;;;;;1.02;0.32;;;18.60;63.20;;;;;;5038377;28;20061;-57
2022/01/04 01:33:08;;;;;;;0.30;0.30;;;18.60;63.20;;;;;;5041459;28;20043;-56
2022/01/04 01:35:35;;;;;;;0.70;0.30;;;18.60;63.20;;;;;;5025579;28;20400;-54
2022/01/04 01:38:02;;;;;;;0.90;0.50;;;18.60;63.10;;;;;;5043550;28;20029;-54
2022/01/04 01:40:27;;;;;;;1.17;0.40;;;18.60;63.20;;;;;;5040679;28;20249;-53
2022/01/04 01:42:53;;;;;;;2.15;0.40;;;18.60;63.00;;;;;;5021694;28;20037;-56
2022/01/04 01:45:21;;;;;;;1.08;0.40;;;18.60;63.10;;;;;;5039103;28;20064;-57
2022/01/04 01:47:47;;;;;;;0.85;0.40;;;18.50;63.00;;;;;;5043109;28;20345;-55
2022/01/04 01:50:13;;;;;;;1.20;0.65;;;18.60;63.00;;;;;;5042691;28;20539;-58
2022/01/04 01:52:39;;;;;;;0.93;0.30;;;18.60;63.00;;;;;;5043333;28;20033;-56
2022/01/04 01:55:05;;;;;;;0.82;0.43;;;18.60;63.00;;;;;;5043013;28;20549;-56
2022/01/04 01:57:31;;;;;;;1.00;0.50;;;18.60;63.00;;;;;;5042984;28;20123;-57
2022/01/04 01:59:57;;;;;;;1.98;0.30;;;18.60;63.00;;;;;;5042869;28;20116;-53
2022/01/04 02:02:22;;;;;;;0.60;0.40;;;18.60;62.90;;;;;;5041784;28;20399;-53
2022/01/04 02:04:48;;;;;;;0.50;0.50;;;18.50;62.90;;;;;;5043261;28;20104;-58
2022/01/04 02:07:13;;;;;;;5.60;0.50;;;18.50;63.00;;;;;;5041227;28;20025;-54
2022/01/04 02:09:43;;;;;;;1.92;0.40;;;18.50;63.00;;;;;;5041734;28;20033;-54
2022/01/04 02:12:09;;;;;;;1.27;0.55;;;18.50;63.00;;;;;;5041805;28;20040;-52
2022/01/04 02:14:34;;;;;;;0.70;0.40;;;18.50;63.00;;;;;;5040952;28;20527;-52
2022/01/04 02:17:00;;;;;;;0.88;0.30;;;18.50;63.00;;;;;;5043176;28;20028;-54
2022/01/04 02:19:25;;;;;;;1.20;0.40;;;18.50;63.10;;;;;;5039944;28;20052;-56
2022/01/04 02:21:51;;;;;;;0.80;0.40;;;18.40;63.00;;;;;;5042596;28;20029;-54
2022/01/04 02:24:16;;;;;;;1.13;0.30;;;18.50;63.10;;;;;;5042071;28;20868;-56
2022/01/04 02:26:42;;;;;;;0.50;0.38;;;18.40;63.10;;;;;;5041320;28;20455;-58
2022/01/04 02:29:08;;;;;;;0.63;0.40;;;18.40;63.10;;;;;;5020999;28;20032;-52
2022/01/04 02:31:35;;;;;;;0.90;0.40;;;18.40;63.00;;;;;;5041411;28;20065;-55
2022/01/04 02:34:00;;;;;;;1.05;0.50;;;18.40;63.00;;;;;;5042016;28;20130;-54
2022/01/04 02:36:25;;;;;;;0.38;0.30;;;18.40;63.00;;;;;;5042409;28;20472;-54
2022/01/04 02:38:51;;;;;;;1.10;0.40;;;18.40;63.00;;;;;;5040592;28;20036;-52
2022/01/04 02:41:17;;;;;;;0.40;0.35;;;18.40;63.00;;;;;;5040518;28;20029;-55
2022/01/04 02:43:42;;;;;;;0.73;0.38;;;18.40;63.00;;;;;;5039916;28;20048;-55
2022/01/04 02:46:08;;;;;;;1.33;0.40;;;18.40;62.90;;;;;;5041274;28;20396;-58
2022/01/04 02:48:41;;;;;;;1.08;0.57;;;18.40;63.00;;;;;;5041610;28;20037;-55
2022/01/04 02:51:06;;;;;;;0.60;0.52;;;18.40;62.90;;;;;;5041951;28;20488;-53
2022/01/04 02:53:32;;;;;;;0.52;0.30;;;18.40;63.00;;;;;;5041605;28;20029;-54
2022/01/04 02:55:57;;;;;;;1.08;0.47;;;18.40;63.00;;;;;;5040011;28;20094;-55
2022/01/04 02:58:23;;;;;;;0.93;0.40;;;18.40;63.00;;;;;;5042120;28;20120;-57
2022/01/04 03:00:48;;;;;;;1.30;0.30;;;18.40;63.00;;;;;;5042743;28;20528;-55
2022/01/04 03:03:14;;;;;;;1.05;0.52;;;18.40;63.00;;;;;;5041691;28;20042;-53
2022/01/04 03:05:39;;;;;;;0.30;0.30;;;18.40;63.70;;;;;;5040228;28;20040;-56
2022/01/04 03:08:05;;;;;;;0.38;0.30;;;18.40;63.00;;;;;;5041912;28;20024;-57
2022/01/04 03:10:31;;;;;;;0.40;0.40;;;18.40;63.00;;;;;;5041544;28;20032;-57
2022/01/04 03:12:57;;;;;;;1.65;0.40;;;18.40;62.90;;;;;;5039739;28;20492;-51
2022/01/04 03:15:22;;;;;;;1.08;0.50;;;18.40;62.90;;;;;;5043642;28;20028;-54
2022/01/04 03:17:48;;;;;;;2.50;0.80;;;18.40;62.90;;;;;;5041971;28;20595;-57
2022/01/04 03:20:13;;;;;;;1.63;1.00;;;18.40;62.90;;;;;;5041013;28;20033;-55
2022/01/04 03:22:39;;;;;;;0.40;0.35;;;18.30;62.90;;;;;;5041829;28;20033;-53
2022/01/04 03:25:05;;;;;;;0.88;0.52;;;18.40;62.90;;;;;;5040585;28;20036;-54
2022/01/04 03:27:31;;;;;;;1.55;0.90;;;18.30;62.80;;;;;;5039761;28;20055;-55
2022/01/04 03:29:56;;;;;;;0.52;0.35;;;18.40;62.90;;;;;;5041280;28;20527;-52
2022/01/04 03:32:22;;;;;;;1.58;0.22;;;18.40;62.80;;;;;;5039298;28;20052;-57
2022/01/04 03:34:47;;;;;;;0.95;0.38;;;18.30;62.70;;;;;;5038636;28;20116;-53
2022/01/04 03:37:13;;;;;;;0.77;0.43;;;18.30;62.80;;;;;;5039176;28;20041;-54
2022/01/04 03:39:38;;;;;;;0.63;0.50;;;18.40;62.80;;;;;;5038916;28;20064;-55
2022/01/04 03:42:05;;;;;;;0.65;0.40;;;18.30;62.80;;;;;;5039566;28;20055;-56
2022/01/04 03:44:30;;;;;;;1.05;0.38;;;18.30;62.80;;;;;;5046152;22;20113;-69
2022/01/04 03:46:56;;;;;;;1.23;0.47;;;18.30;62.80;;;;;;5026576;28;20769;-69
2022/01/04 03:49:22;;;;;;;0.63;0.40;;;18.30;62.80;;;;;;5026821;28;20037;-71
2022/01/04 03:51:47;;;;;;;0.30;0.30;;;18.30;62.80;;;;;;5026791;28;20401;-71
2022/01/04 03:54:13;;;;;;;0.98;0.40;;;18.30;62.70;;;;;;5022215;28;20124;-71
2022/01/04 03:56:38;;;;;;;1.23;0.57;;;18.30;62.80;;;;;;5011534;28;20029;-71
2022/01/04 03:59:04;;;;;;;0.77;0.43;;;18.30;63.40;;;;;;5004593;28;20034;-70
2022/01/04 04:01:29;;;;;;;1.13;0.32;;;18.30;62.80;;;;;;5007655;28;20506;-71
2022/01/04 04:03:55;;;;;;;1.58;0.57;;;18.30;62.80;;;;;;5009126;28;20030;-69
2022/01/04 04:06:20;;;;;;;0.60;0.40;;;18.30;63.40;;;;;;5008338;28;20022;-71
2022/01/04 04:08:46;;;;;;;0.55;0.38;;;18.30;62.70;;;;;;5008763;28;20418;-71
2022/01/04 04:11:12;;;;;;;1.13;0.30;;;18.30;62.80;;;;;;5011614;28;20467;-71
2022/01/04 04:13:37;;;;;;;0.85;0.30;;;18.30;62.80;;;;;;5009085;28;20038;-70
2022/01/04 04:16:03;;;;;;;2.13;0.47;;;18.30;62.80;;;;;;5007322;28;20061;-69
2022/01/04 04:18:28;;;;;;;0.90;0.40;;;18.30;62.80;;;;;;5010214;28;20029;-67
2022/01/04 04:20:54;;;;;;;0.50;0.50;;;18.30;62.70;;;;;;5010653;28;20029;-68
2022/01/04 04:23:19;;;;;;;4.20;0.65;;;18.20;62.70;;;;;;5011458;28;20605;-71
2022/01/04 04:25:46;;;;;;;0.85;0.40;;;18.30;62.80;;;;;;5010153;28;20542;-71
2022/01/04 04:28:11;;;;;;;0.93;0.47;;;18.30;62.80;;;;;;5010088;28;20014;-63
2022/01/04 04:30:37;;;;;;;0.40;0.40;;;18.20;62.80;;;;;;5009500;28;20535;-68
2022/01/04 04:33:02;;;;;;;0.52;0.40;;;18.20;62.80;;;;;;5009972;28;20622;-70
2022/01/04 04:35:29;;;;;;;0.98;0.40;;;18.20;62.80;;;;;;5009866;28;20030;-70
2022/01/04 04:37:56;;;;;;;1.35;0.35;;;18.20;62.80;;;;;;5009983;28;20022;-70
2022/01/04 04:40:22;;;;;;;1.48;0.70;;;18.30;62.80;;;;;;5009210;28;20038;-69
2022/01/04 04:42:47;;;;;;;1.42;0.40;;;18.20;62.80;;;;;;5009643;28;20030;-71
2022/01/04 04:45:13;;;;;;;0.55;0.40;;;18.30;62.90;;;;;;5008709;28;20427;-71
2022/01/04 04:47:38;;;;;;;0.82;0.35;;;18.20;62.80;;;;;;5009122;28;20026;-68
2022/01/04 04:50:04;;;;;;;1.08;0.43;;;18.30;62.90;;;;;;5008533;28;20026;-72
2022/01/04 04:52:30;;;;;;;1.77;0.40;;;18.20;62.80;;;;;;5009896;28;20124;-70
2022/01/04 04:54:55;;;;;;;2.35;0.47;;;18.20;62.80;;;;;;5008219;28;20547;-71
2022/01/04 04:57:21;;;;;;;0.47;0.30;;;18.30;62.80;;;;;;5008570;28;20679;-71
2022/01/04 04:59:46;;;;;;;0.90;0.30;;;18.20;62.70;;;;;;5006585;28;20552;-72
2022/01/04 05:02:11;;;;;;;0.88;0.73;;;18.30;62.80;;;;;;5006931;28;20026;-68
2022/01/04 05:04:37;;;;;;;0.88;0.40;;;18.30;62.70;;;;;;5008028;28;20033;-70
2022/01/04 05:07:03;;;;;;;0.95;0.40;;;18.20;62.70;;;;;;5008373;28;20105;-70
2022/01/04 05:09:29;;;;;;;0.55;0.40;;;18.30;62.70;;;;;;5008669;28;20030;-68
2022/01/04 05:11:54;;;;;;;1.33;0.60;;;18.30;62.60;;;;;;5008821;28;20730;-71
2022/01/04 05:14:20;;;;;;;0.90;0.43;;;18.30;62.60;;;;;;5007399;28;20026;-71
2022/01/04 05:16:45;;;;;;;0.60;0.40;;;18.30;62.60;;;;;;5008794;28;20040;-71
2022/01/04 05:19:11;;;;;;;1.15;0.45;;;18.30;62.60;;;;;;5007711;28;20033;-70
2022/01/04 05:21:36;;;;;;;0.38;0.30;;;18.30;62.50;;;;;;5008971;28;20033;-70
2022/01/04 05:24:02;;;;;;;1.58;0.50;;;18.30;62.50;;;;;;5008631;28;20033;-72
2022/01/04 05:26:27;;;;;;;1.65;0.47;;;18.30;62.40;;;;;;5008690;28;20033;-65
2022/01/04 05:28:53;;;;;;;0.80;0.40;;;18.30;62.40;;;;;;5008162;28;20120;-70
2022/01/04 05:31:18;;;;;;;0.90;0.43;;;18.30;62.50;;;;;;5008248;28;20022;-70
2022/01/04 05:33:44;;;;;;;0.80;0.80;;;18.30;62.40;;;;;;5008889;28;20049;-70
2022/01/04 05:36:09;;;;;;;1.52;0.55;;;18.30;62.40;;;;;;5008599;28;20429;-69
2022/01/04 05:38:35;;;;;;;1.35;0.60;;;18.30;62.40;;;;;;5009220;28;20041;-65
2022/01/04 05:41:00;;;;;;;1.20;0.40;;;18.30;62.40;;;;;;5007644;28;20030;-70
2022/01/04 05:43:26;;;;;;;0.80;0.30;;;18.30;62.40;;;;;;5009145;28;20038;-70
2022/01/04 05:45:51;;;;;;;0.32;0.30;;;18.30;62.40;;;;;;5006452;28;20033;-69
2022/01/04 05:48:20;;;;;;;1.33;0.70;;;18.30;62.40;;;;;;5009117;28;20042;-69
2022/01/04 05:50:46;;;;;;;1.17;0.25;;;18.30;62.40;;;;;;5007527;28;20017;-71
2022/01/04 05:53:11;;;;;;;1.42;0.38;;;18.20;62.30;;;;;;5007786;28;20551;-65
2022/01/04 05:55:37;;;;;;;1.00;0.30;;;18.20;62.30;;;;;;5008258;28;20040;-70
2022/01/04 05:58:02;;;;;;;0.73;0.30;;;18.20;62.30;;;;;;5010060;28;20088;-70
2022/01/04 06:00:28;;;;;;;0.93;0.30;;;18.30;62.40;;;;;;5009298;28;20495;-69
2022/01/04 06:02:54;;;;;;;1.05;0.30;;;18.30;62.40;;;;;;5008896;28;20033;-69
2022/01/04 06:05:19;;;;;;;0.30;0.30;;;18.20;62.30;;;;;;5008483;28;20113;-71
2022/01/04 06:07:45;;;;;;;0.63;0.30;;;18.20;62.30;;;;;;5007385;28;20026;-70
2022/01/04 06:10:12;;;;;;;1.25;0.40;;;18.20;62.20;;;;;;5008011;28;20021;-71
2022/01/04 06:15:07;;;;;;;1.45;0.40;;;18.20;63.00;;;;;;5007782;28;20079;-70
2022/01/04 06:17:34;;;;;;;15.60;9.20;;;18.20;62.40;;;;;;5008689;28;20086;-70
2022/01/04 06:19:59;;;;;;;29.48;16.35;;;18.20;62.40;;;;;;5009160;28;20723;-68
2022/01/04 06:22:28;;;;;;;24.63;15.50;;;18.20;63.10;;;;;;5008262;28;20040;-70
2022/01/04 06:24:54;;;;;;;23.33;13.80;;;18.20;62.60;;;;;;5007799;28;20024;-68
2022/01/04 06:27:19;;;;;;;30.50;15.35;;;18.20;62.60;;;;;;5009298;28;20383;-68
2022/01/04 06:29:45;;;;;;;18.95;12.30;;;18.20;62.70;;;;;;5008815;28;20014;-71
2022/01/04 06:32:10;;;;;;;20.75;12.43;;;18.20;62.70;;;;;;5007834;28;20068;-68
2022/01/04 06:34:36;;;;;;;20.48;12.15;;;18.20;62.80;;;;;;5006111;28;20026;-69
2022/01/04 06:37:02;;;;;;;19.88;11.40;;;18.20;63.40;;;;;;5006232;28;20026;-70
2022/01/04 06:39:28;;;;;;;21.15;11.63;;;18.30;63.00;;;;;;5007412;28;20026;-69
2022/01/04 06:41:53;;;;;;;16.05;9.65;;;18.20;62.90;;;;;;5007818;28;20057;-68
2022/01/04 06:44:19;;;;;;;15.73;9.95;;;18.20;63.00;;;;;;5007028;28;20025;-67
2022/01/04 06:46:45;;;;;;;14.63;8.93;;;18.20;63.00;;;;;;5007270;28;20076;-70
2022/01/04 06:49:11;;;;;;;16.35;9.60;;;18.20;62.80;;;;;;5006041;28;20006;-68
2022/01/04 06:51:37;;;;;;;17.50;8.50;;;18.20;63.30;;;;;;5017514;28;20036;-68
2022/01/04 06:54:02;;;;;;;15.10;8.45;;;18.30;63.70;;;;;;5009800;28;20375;-70
2022/01/04 06:56:28;;;;;;;15.80;8.10;;;18.30;63.90;;;;;;5010536;28;20018;-68
2022/01/04 06:58:53;;;;;;;12.27;8.30;;;18.30;63.90;;;;;;5009328;28;20079;-67
2022/01/04 07:01:19;;;;;;;13.77;7.40;;;18.30;63.90;;;;;;5008662;28;20022;-69
2022/01/04 07:03:44;;;;;;;17.25;6.60;;;18.30;63.80;;;;;;5006132;28;20018;-63
2022/01/04 07:06:10;;;;;;;11.85;6.80;;;18.30;63.80;;;;;;5006226;28;20017;-66
2022/01/04 07:08:35;;;;;;;13.32;6.03;;;18.30;63.70;;;;;;5005311;28;20024;-70
2022/01/04 07:11:01;;;;;;;13.45;6.45;;;18.30;63.50;;;;;;5005796;28;20025;-67
2022/01/04 07:13:26;;;;;;;16.45;6.22;;;18.30;63.50;;;;;;5006342;28;20101;-70
2022/01/04 07:15:52;;;;;;;10.82;5.22;;;18.30;63.40;;;;;;5005740;28;20061;-69
2022/01/04 07:18:17;;;;;;;11.60;5.82;;;18.30;63.40;;;;;;5006248;28;20724;-69
2022/01/04 07:20:43;;;;;;;6.95;4.82;;;18.30;63.30;;;;;;5005988;28;20322;-71
2022/01/04 07:23:08;;;;;;;10.23;5.10;;;18.30;63.20;;;;;;5006932;28;20042;-69
2022/01/04 07:25:34;;;;;;;11.68;4.32;;;18.30;63.20;;;;;;5005777;28;20034;-70
2022/01/04 07:27:59;;;;;;;13.30;5.30;;;18.30;63.20;;;;;;5005327;28;20552;-72
2022/01/04 07:30:25;;;;;;;7.68;4.45;;;18.30;63.20;;;;;;5007467;28;20109;-71
2022/01/04 07:32:50;;;;;;;7.50;4.60;;;18.30;63.70;;;;;;5010693;28;20024;-69
2022/01/04 07:35:16;;;;;;;9.40;4.78;;;18.30;64.40;;;;;;5010588;28;20018;-71
2022/01/04 07:37:41;;;;;;;7.43;4.57;;;18.30;64.90;;;;;;5012348;28;20033;-67
2022/01/04 07:40:07;;;;;;;7.97;4.22;;;18.30;65.10;;;;;;5011387;28;20017;-67
2022/01/04 07:42:33;;;;;;;14.35;7.03;;;18.30;65.10;;;;;;5013467;28;20025;-68
2022/01/04 07:44:58;;;;;;;36.40;13.80;;;18.30;65.60;;;;;;5013990;28;20121;-70
2022/01/04 07:47:24;;;;;;;42.75;15.93;;;18.30;65.90;;;;;;5015725;28;20018;-68
2022/01/04 07:49:49;;;;;;;56.45;18.17;;;18.30;65.80;;;;;;5015864;28;20022;-69
2022/01/04 07:52:16;;;;;;;47.05;18.10;;;18.30;66.10;;;;;;5015353;28;20056;-69
2022/01/04 07:54:43;;;;;;;60.13;18.65;;;18.30;66.30;;;;;;5015906;28;20022;-69
2022/01/04 07:57:08;;;;;;;44.25;16.73;;;18.30;66.40;;;;;;5015229;28;20026;-70
2022/01/04 07:59:34;;;;;;;48.95;17.10;;;18.30;66.40;;;;;;5013744;28;20034;-71
2022/01/04 08:02:00;;;;;;;49.45;16.77;;;18.20;66.30;;;;;;5014739;28;20018;-70
2022/01/04 08:04:25;;;;;;;37.83;14.30;;;18.30;66.50;;;;;;5013111;28;20671;-70
2022/01/04 08:06:51;;;;;;;39.92;13.73;;;18.30;66.30;;;;;;5013285;28;20088;-70
2022/01/04 08:09:16;;;;;;;39.58;14.27;;;18.30;66.30;;;;;;5013494;28;20109;-70
2022/01/04 08:11:42;;;;;;;34.25;12.65;;;18.40;66.30;;;;;;5013569;28;20029;-69
2022/01/04 08:14:08;;;;;;;30.55;12.10;;;18.40;66.20;;;;;;5013681;28;20026;-70
2022/01/04 08:16:34;;;;;;;32.80;10.57;;;18.40;66.00;;;;;;5013723;28;20096;-70
2022/01/04 08:19:00;;;;;;;24.50;8.88;;;18.30;65.90;;;;;;5011599;28;20033;-69
2022/01/04 08:21:25;;;;;;;27.40;9.13;;;18.30;65.70;;;;;;5013654;28;20014;-69
2022/01/04 08:23:51;;;;;;;22.45;8.73;;;18.30;65.70;;;;;;5011819;28;20018;-72
2022/01/04 08:26:16;;;;;;;20.42;7.72;;;18.30;65.70;;;;;;5012062;28;20018;-68
2022/01/04 08:28:42;;;;;;;23.42;7.85;;;18.30;65.60;;;;;;5013099;28;20028;-70
2022/01/04 08:31:07;;;;;;;21.35;8.05;;;18.30;65.70;;;;;;5011920;28;20021;-68
2022/01/04 08:33:33;;;;;;;19.17;7.55;;;18.30;65.70;;;;;;5012069;28;20022;-67
2022/01/04 08:35:58;;;;;;;25.33;9.02;;;18.30;65.80;;;;;;5011741;28;20046;-69
2022/01/04 08:38:24;;;;;;;19.17;6.70;;;18.30;65.70;;;;;;5010329;28;20034;-72
2022/01/04 08:40:49;;;;;;;22.60;6.68;;;18.30;65.60;;;;;;5011197;28;20026;-71
2022/01/04 08:43:16;;;;;;;18.55;7.22;;;18.30;65.60;;;;;;5012145;28;20029;-69
2022/01/04 08:45:42;;;;;;;16.42;5.97;;;18.30;65.50;;;;;;5011541;28;20030;-70
2022/01/04 08:48:07;;;;;;;15.32;5.20;;;18.30;65.40;;;;;;5011690;28;20029;-69
2022/01/04 08:50:33;;;;;;;17.20;5.95;;;18.30;65.40;;;;;;5011066;28;20021;-69
2022/01/04 08:52:59;;;;;;;14.38;5.60;;;18.30;65.40;;;;;;5011834;28;20018;-69
2022/01/04 08:55:24;;;;;;;14.63;5.47;;;18.20;65.30;;;;;;5012085;28;20517;-69
2022/01/04 08:57:50;;;;;;;16.85;5.93;;;18.30;65.30;;;;;;5011124;28;20018;-70
2022/01/04 09:00:16;;;;;;;19.67;7.00;;;18.20;65.30;;;;;;5011204;28;20460;-69
2022/01/04 09:02:43;;;;;;;13.73;5.20;;;18.20;65.20;;;;;;5011700;28;20037;-70
2022/01/04 09:05:09;;;;;;;12.13;5.93;;;18.20;65.10;;;;;;5011518;28;20049;-69
2022/01/04 09:07:35;;;;;;;10.90;5.25;;;18.20;65.10;;;;;;5011887;28;20099;-69
2022/01/04 09:10:00;;;;;;;13.15;4.28;;;18.20;65.10;;;;;;5011398;28;20022;-70
2022/01/04 09:12:35;;;;;;;12.60;5.00;;;18.20;65.10;;;;;;5010763;28;20092;-69
2022/01/04 09:15:16;;;;;;;8.98;4.88;;;18.20;65.10;;;;;;5011396;28;20026;-69
2022/01/04 09:20:26;;;;;;;13.20;4.85;;;18.20;65.00;;;;;;5002368;28;20080;-69
2022/01/04 09:22:52;;;;;;;14.07;4.63;;;18.20;64.90;;;;;;5011458;28;20026;-70
2022/01/04 09:25:18;;;;;;;10.68;3.88;;;18.20;65.00;;;;;;5010776;28;20429;-69
2022/01/04 09:27:43;;;;;;;9.90;4.15;;;18.20;64.90;;;;;;5010522;28;20053;-70
2022/01/04 09:30:09;;;;;;;11.20;4.63;;;18.20;64.90;;;;;;5010226;28;20025;-71
2022/01/04 09:32:35;;;;;;;8.90;3.95;;;18.20;64.80;;;;;;5010752;28;20041;-71
2022/01/04 09:35:01;;;;;;;8.98;4.18;;;18.20;64.80;;;;;;5010554;28;20121;-69
2022/01/04 09:37:26;;;;;;;10.63;4.18;;;18.20;64.80;;;;;;5010402;28;20041;-69
2022/01/04 09:39:52;;;;;;;8.50;3.80;;;18.20;64.80;;;;;;5008844;28;20125;-70
2022/01/04 09:42:19;;;;;;;9.50;4.05;;;18.20;64.70;;;;;;5009732;28;20038;-69
2022/01/04 09:47:12;;;;;;;10.70;4.18;;;18.20;64.60;;;;;;4980258;28;20035;-63
2022/01/04 09:49:38;;;;;;;9.30;3.42;;;18.20;64.70;;;;;;4988583;28;20487;-62
2022/01/04 09:52:03;;;;;;;12.07;3.85;;;18.20;64.70;;;;;;4989031;28;20014;-62
2022/01/04 09:54:29;;;;;;;7.45;3.08;;;18.20;64.70;;;;;;4988786;28;20149;-60
2022/01/04 09:56:54;;;;;;;5.40;2.88;;;18.10;64.50;;;;;;4979097;28;20379;-62
2022/01/04 09:59:20;;;;;;;7.78;3.38;;;18.20;64.70;;;;;;4973473;28;20019;-62
2022/01/04 10:01:51;;;;;;;7.28;3.65;;;18.10;64.60;;;;;;4978071;28;20031;-62
2022/01/04 10:04:17;;;;;;;11.45;4.03;;;18.10;64.60;;;;;;4978255;28;20022;-62
2022/01/04 10:07:02;;;;;;;7.85;3.10;;;18.20;64.70;;;;;;4979333;28;20041;-62
2022/01/04 10:09:44;;;;;;;8.77;3.10;;;18.10;64.70;;;;;;4985070;28;20027;-62
2022/01/04 10:12:10;;;;;;;7.47;2.88;;;18.20;64.60;;;;;;4969528;28;20023;-62
2022/01/04 10:14:43;;;;;;;5.88;2.78;;;18.20;64.70;;;;;;4977448;28;20027;-62
2022/01/04 10:17:13;;;;;;;6.22;2.95;;;18.10;64.60;;;;;;5014264;28;20038;-62
2022/01/04 10:19:39;;;;;;;6.10;3.10;;;18.10;64.60;;;;;;4969966;28;20027;-63
2022/01/04 10:22:17;;;;;;;5.38;2.78;;;18.20;64.70;;;;;;4969718;28;20081;-62
2022/01/04 10:24:44;;;;;;;6.38;3.13;;;18.10;64.60;;;;;;4969922;28;20169;-64
2022/01/04 10:27:22;;;;;;;7.40;2.67;;;18.10;64.60;;;;;;5015063;28;20014;-62
2022/01/04 10:29:48;;;;;;;5.65;2.50;;;18.20;64.60;;;;;;4982714;28;20029;-61
2022/01/04 10:32:14;;;;;;;4.57;2.53;;;18.20;64.60;;;;;;5009575;28;20021;-62
2022/01/04 10:34:47;;;;;;;4.50;2.30;;;18.10;64.50;;;;;;5016491;28;20014;-63
2022/01/04 10:37:31;;;;;;;5.20;2.25;;;18.10;64.60;;;;;;4971835;28;20053;-62
2022/01/04 10:40:07;;;;;;;5.07;2.75;;;18.10;64.40;;;;;;4975574;28;20497;-62
2022/01/04 10:42:33;;;;;;;4.18;2.25;;;18.10;64.40;;;;;;4981311;28;20019;-63
2022/01/04 10:44:58;;;;;;;6.40;2.25;;;18.10;64.40;;;;;;4974711;28;20105;-62
2022/01/04 10:47:30;;;;;;;6.45;2.10;;;18.10;64.40;;;;;;4974112;28;20054;-63
2022/01/04 10:49:56;;;;;;;5.90;2.38;;;18.10;64.40;;;;;;4992729;28;20078;-63
2022/01/04 10:52:30;;;;;;;3.53;1.90;;;18.10;64.40;;;;;;4996216;28;20053;-64
2022/01/04 10:55:14;;;;;;;5.28;2.47;;;18.10;64.30;;;;;;4988831;28;20515;-64
2022/01/04 10:57:40;;;;;;;3.65;1.90;;;18.10;64.30;;;;;;4995636;28;20023;-64
2022/01/04 11:00:16;;;;;;;4.45;2.10;;;18.10;64.90;;;;;;5018427;28;20045;-64
2022/01/04 11:02:41;;;;;;;4.55;2.13;;;18.10;64.50;;;;;;4989176;28;20015;-61
2022/01/04 11:05:18;;;;;;;2.78;1.50;;;18.10;64.90;;;;;;4965810;28;20019;-62
2022/01/04 11:07:59;;;;;;;3.53;1.88;;;18.10;64.20;;;;;;4985226;28;20030;-64
2022/01/04 11:10:27;;;;;;;3.15;1.50;;;18.10;64.20;;;;;;4979884;28;20022;-63
2022/01/04 11:12:53;;;;;;;4.95;1.90;;;18.10;64.30;;;;;;4984011;28;20015;-66
2022/01/04 11:15:18;;;;;;;4.05;2.47;;;18.10;64.20;;;;;;4983436;28;20034;-65
2022/01/04 11:17:44;;;;;;;2.78;1.83;;;18.10;64.20;;;;;;4977227;28;20022;-64
2022/01/04 11:20:10;;;;;;;2.40;1.67;;;18.10;64.40;;;;;;4972330;28;20027;-64
2022/01/04 11:22:37;;;;;;;8.10;1.95;;;18.10;64.50;;;;;;4978048;28;20076;-63
2022/01/04 11:25:02;;;;;;;4.70;2.22;;;18.10;64.40;;;;;;4982778;28;20378;-63
2022/01/04 11:27:30;;;;;;;3.50;1.70;;;18.10;64.60;;;;;;4972621;28;20019;-63
2022/01/04 11:29:58;;;;;;;4.20;1.60;;;18.10;64.60;;;;;;5005022;28;20072;-64
2022/01/04 11:32:23;;;;;;;4.53;2.00;;;18.10;64.70;;;;;;4979715;28;20094;-63
2022/01/04 11:35:09;;;;;;;5.60;1.70;;;18.10;64.70;;;;;;5011531;28;20030;-64
2022/01/04 11:37:35;;;;;;;4.93;1.83;;;18.10;64.70;;;;;;4979450;28;20030;-63
2022/01/04 11:40:23;;;;;;;6.25;2.22;;;18.10;64.60;;;;;;5002963;28;20626;-60
2022/01/04 11:42:48;;;;;;;4.00;1.70;;;18.10;65.20;;;;;;4985346;28;20034;-63
2022/01/04 11:45:16;;;;;;;4.45;1.70;;;18.10;64.60;;;;;;4979371;28;20054;-65
2022/01/04 11:47:46;;;;;;;3.70;1.60;;;18.10;64.70;;;;;;4980601;28;20022;-64
2022/01/04 11:50:16;;;;;;;3.60;1.80;;;18.00;64.60;;;;;;4972700;28;20022;-64
2022/01/04 11:52:50;;;;;;;2.55;1.55;;;18.10;64.70;;;;;;4984882;28;20022;-64
2022/01/04 11:55:29;;;;;;;6.53;1.60;;;18.10;64.60;;;;;;4999794;28;20113;-65
2022/01/04 11:57:57;;;;;;;2.67;1.30;;;18.10;64.60;;;;;;4967792;28;20485;-64
2022/01/04 12:00:37;;;;;;;3.45;1.40;;;18.10;64.50;;;;;;4995163;28;20035;-64
2022/01/04 12:03:12;;;;;;;6.40;2.05;;;18.10;64.40;;;;;;4977618;28;20019;-63
2022/01/04 12:05:39;;;;;;;3.55;1.70;;;18.10;64.40;;;;;;4973670;28;20038;-64
2022/01/04 12:08:18;;;;;;;5.00;1.80;;;18.10;64.40;;;;;;4976471;28;20034;-64
2022/01/04 12:10:43;;;;;;;2.90;1.35;;;18.10;64.40;;;;;;5013289;28;20019;-63
2022/01/04 12:13:11;;;;;;;3.17;1.40;;;18.10;64.30;;;;;;4965675;28;20015;-64
2022/01/04 12:15:36;;;;;;;2.45;1.20;;;18.10;64.30;;;;;;4990975;28;20035;-65
2022/01/04 12:18:09;;;;;;;3.15;1.65;;;18.10;64.20;;;;;;4988018;28;20072;-64
2022/01/04 12:20:41;;;;;;;3.60;1.38;;;18.10;64.30;;;;;;4979938;28;20295;-64
2022/01/04 12:23:29;;;;;;;2.92;1.10;;;18.10;64.20;;;;;;4992127;28;20022;-63
2022/01/04 12:26:14;;;;;;;2.97;1.38;;;18.10;64.10;;;;;;4979404;28;20037;-64
2022/01/04 12:28:39;;;;;;;1.55;1.00;;;18.10;64.10;;;;;;4974601;28;20105;-63
2022/01/04 12:31:20;;;;;;;2.60;1.27;;;18.10;64.10;;;;;;4978833;28;20106;-64
2022/01/04 12:33:58;;;;;;;1.60;1.10;;;18.10;64.00;;;;;;4984325;28;20037;-64
2022/01/04 12:36:30;;;;;;;2.75;1.27;;;18.10;64.00;;;;;;4972195;28;20034;-63
2022/01/04 12:38:58;;;;;;;1.75;1.20;;;18.10;64.60;;;;;;4974253;28;20030;-63
2022/01/04 12:41:23;;;;;;;2.70;1.08;;;18.10;64.50;;;;;;5003369;28;20113;-62
2022/01/04 12:43:50;;;;;;;0.73;0.70;;;18.10;63.90;;;;;;4956497;28;20106;-63
2022/01/04 12:46:42;;;;;;;3.53;1.20;;;18.10;63.90;;;;;;4973979;28;20038;-64
2022/01/04 12:49:11;;;;;;;2.33;1.05;;;18.10;63.80;;;;;;4971860;28;20035;-63
2022/01/04 12:51:38;;;;;;;1.92;1.10;;;18.00;63.80;;;;;;5004970;28;20042;-63
2022/01/04 12:54:07;;;;;;;1.73;1.10;;;18.10;63.80;;;;;;4981353;28;20026;-63